Time;durP1;ratioP1;P1;durP2;ratioP2;P2;SDS_P1;SDS_P2;PMS_P1;PMS_P2;Temp;Humidity;BMP_temperature;BMP_pressure;BME280_temperature;BME280_humidity;BME280_pressure;Samples;Min_cycle;Max_cycle;Signal;HPM_P1;HPM_P2
2023/01/16 00:00:31;;;;;;;9.80;5.43;;;4.40;99.90;;;;;;5037416;28;20037;-69
2023/01/16 00:02:57;;;;;;;6.57;4.45;;;4.40;99.90;;;;;;5053679;28;20045;-70
2023/01/16 00:05:23;;;;;;;11.02;5.38;;;4.40;99.90;;;;;;5053823;28;20053;-70
2023/01/16 00:07:48;;;;;;;9.68;4.57;;;4.50;99.90;;;;;;5053430;28;20191;-69
2023/01/16 00:10:16;;;;;;;7.05;4.60;;;4.40;99.90;;;;;;5053789;28;20067;-68
2023/01/16 00:12:42;;;;;;;7.85;4.40;;;4.50;99.90;;;;;;5054321;28;20690;-68
2023/01/16 00:15:08;;;;;;;7.20;4.28;;;4.50;99.90;;;;;;5054396;28;20110;-68
2023/01/16 00:17:33;;;;;;;6.40;4.18;;;4.50;99.90;;;;;;5054784;28;20061;-71
2023/01/16 00:19:59;;;;;;;7.30;4.68;;;4.50;99.90;;;;;;5054325;28;20043;-70
2023/01/16 00:22:25;;;;;;;10.38;4.82;;;4.40;99.90;;;;;;5053829;28;20051;-69
2023/01/16 00:24:50;;;;;;;9.30;5.45;;;4.50;99.90;;;;;;5054135;28;20336;-69
2023/01/16 00:27:16;;;;;;;8.48;4.88;;;4.60;99.90;;;;;;5052232;28;20151;-73
2023/01/16 00:29:42;;;;;;;9.00;5.63;;;4.50;99.90;;;;;;5054558;28;20045;-69
2023/01/16 00:32:09;;;;;;;8.48;5.55;;;4.50;99.90;;;;;;5053183;28;20055;-69
2023/01/16 00:34:35;;;;;;;9.80;5.70;;;4.50;99.90;;;;;;5036623;28;20049;-69
2023/01/16 00:37:01;;;;;;;8.55;5.95;;;4.50;99.90;;;;;;5054112;28;20505;-70
2023/01/16 00:39:27;;;;;;;9.98;5.45;;;4.50;99.90;;;;;;5053394;28;20056;-69
2023/01/16 00:41:52;;;;;;;8.10;5.22;;;4.60;99.90;;;;;;5052670;28;20056;-69
2023/01/16 00:44:19;;;;;;;9.10;5.50;;;4.50;99.90;;;;;;5053287;28;20060;-70
2023/01/16 00:46:45;;;;;;;12.55;6.05;;;4.60;99.90;;;;;;5054240;28;20071;-69
2023/01/16 00:49:10;;;;;;;6.85;4.53;;;4.50;99.90;;;;;;5036017;28;20049;-69
2023/01/16 00:51:36;;;;;;;9.70;4.97;;;4.60;99.90;;;;;;5054040;28;20124;-69
2023/01/16 00:54:02;;;;;;;10.13;4.38;;;4.70;99.90;;;;;;5052657;28;20552;-70
2023/01/16 00:56:27;;;;;;;10.70;5.00;;;4.40;99.90;;;;;;5054034;28;20048;-69
2023/01/16 00:58:53;;;;;;;9.20;4.50;;;4.30;99.90;;;;;;5036090;28;20051;-75
2023/01/16 01:01:19;;;;;;;9.80;4.93;;;4.30;99.90;;;;;;5052334;28;20455;-69
2023/01/16 01:03:44;;;;;;;6.78;4.10;;;4.30;99.90;;;;;;5054081;28;20036;-69
2023/01/16 01:06:11;;;;;;;8.65;4.60;;;4.40;99.90;;;;;;5052486;28;20057;-69
2023/01/16 01:08:37;;;;;;;9.70;4.15;;;4.30;99.90;;;;;;5053943;28;20072;-69
2023/01/16 01:11:14;;;;;;;7.10;3.80;;;4.30;99.90;;;;;;5035506;28;20064;-69
2023/01/16 01:13:41;;;;;;;6.00;3.83;;;4.30;99.90;;;;;;5052279;28;20049;-69
2023/01/16 01:16:08;;;;;;;7.75;4.38;;;4.20;99.90;;;;;;5053315;28;20049;-68
2023/01/16 01:18:34;;;;;;;7.82;3.95;;;4.20;99.90;;;;;;5052376;28;20091;-69
2023/01/16 01:20:59;;;;;;;6.57;3.92;;;4.20;99.90;;;;;;5053177;28;20084;-69
2023/01/16 01:23:25;;;;;;;7.32;3.97;;;4.20;99.90;;;;;;5035867;28;20059;-69
2023/01/16 01:25:52;;;;;;;6.90;3.53;;;3.80;99.90;;;;;;5053472;28;20045;-68
2023/01/16 01:28:18;;;;;;;8.23;4.55;;;4.20;99.90;;;;;;5035482;28;20110;-69
2023/01/16 01:30:44;;;;;;;6.85;3.30;;;4.20;99.90;;;;;;5035861;28;20057;-69
2023/01/16 01:33:10;;;;;;;8.88;4.05;;;4.20;99.90;;;;;;5051713;28;20101;-68
2023/01/16 01:35:37;;;;;;;7.25;3.63;;;4.20;99.90;;;;;;5053355;28;20048;-69
2023/01/16 01:38:03;;;;;;;8.02;3.55;;;4.40;99.90;;;;;;5053033;28;20049;-69
2023/01/16 01:40:29;;;;;;;8.60;3.95;;;4.20;99.90;;;;;;5053225;28;20095;-69
2023/01/16 01:42:55;;;;;;;10.07;3.60;;;4.20;99.90;;;;;;5053112;28;20136;-68
2023/01/16 01:45:27;;;;;;;8.63;3.53;;;4.20;99.90;;;;;;5052480;28;20051;-69
2023/01/16 01:47:56;;;;;;;7.28;3.08;;;4.20;99.90;;;;;;5052237;28;20044;-69
2023/01/16 01:50:35;;;;;;;8.65;2.95;;;4.20;99.90;;;;;;5051766;28;20098;-69
2023/01/16 01:53:08;;;;;;;8.48;3.35;;;4.20;99.90;;;;;;5051671;28;20059;-73
2023/01/16 01:55:34;;;;;;;6.97;3.10;;;4.20;99.90;;;;;;5051897;28;20041;-68
2023/01/16 01:58:01;;;;;;;8.88;3.42;;;4.20;99.90;;;;;;5051985;28;20047;-70
2023/01/16 02:00:27;;;;;;;9.63;3.50;;;4.30;99.90;;;;;;5035058;28;20049;-68
2023/01/16 02:03:10;;;;;;;6.93;3.13;;;4.30;99.90;;;;;;5051598;28;20373;-68
2023/01/16 02:05:46;;;;;;;10.10;3.60;;;4.30;99.90;;;;;;5052205;28;20049;-69
2023/01/16 02:08:19;;;;;;;10.10;3.88;;;4.10;99.90;;;;;;5050640;28;20040;-69
2023/01/16 02:10:50;;;;;;;10.52;4.13;;;4.10;99.90;;;;;;5052289;28;20490;-69
2023/01/16 02:13:16;;;;;;;5.68;2.97;;;4.10;99.90;;;;;;5050170;28;20045;-68
2023/01/16 02:19:15;;;;;;;6.25;2.58;;;4.10;99.90;;;;;;5052450;28;20048;-69
2023/01/16 02:21:31;;;;;;;;;;;4.10;99.90;;;;;;5051630;28;20068;-69
2023/01/16 02:24:28;;;;;;;5.75;3.10;;;4.10;99.90;;;;;;5051429;28;20226;-69
2023/01/16 02:27:18;;;;;;;7.97;3.22;;;4.10;99.90;;;;;;5052224;28;20044;-70
2023/01/16 02:29:55;;;;;;;7.22;3.30;;;4.10;99.90;;;;;;5051305;28;20049;-69
2023/01/16 02:32:47;;;;;;;9.55;3.38;;;4.10;99.90;;;;;;5050888;28;20049;-70
2023/01/16 02:35:25;;;;;;;10.82;3.65;;;4.10;99.90;;;;;;5050710;28;20463;-69
2023/01/16 02:38:27;;;;;;;7.55;3.05;;;4.00;99.90;;;;;;5051223;28;20052;-70
2023/01/16 02:40:52;;;;;;;8.60;3.28;;;4.20;99.90;;;;;;5052026;28;20084;-69
2023/01/16 02:43:21;;;;;;;10.27;3.17;;;4.20;99.90;;;;;;5050186;28;20060;-69
2023/01/16 02:46:05;;;;;;;8.50;3.40;;;4.20;99.90;;;;;;5050972;28;20084;-69
2023/01/16 02:48:39;;;;;;;8.63;3.92;;;4.10;99.90;;;;;;5051993;28;20106;-69
2023/01/16 02:51:20;;;;;;;6.15;3.13;;;4.20;99.90;;;;;;5051035;28;20065;-69
2023/01/16 02:53:57;;;;;;;8.43;3.50;;;4.20;99.90;;;;;;5050568;28;20049;-69
2023/01/16 02:56:30;;;;;;;7.38;3.47;;;4.10;99.90;;;;;;5050659;28;20459;-69
2023/01/16 02:58:57;;;;;;;10.15;4.10;;;4.20;99.90;;;;;;5051824;28;20049;-69
2023/01/16 03:01:23;;;;;;;8.77;3.80;;;4.20;99.90;;;;;;5050527;28;20047;-69
2023/01/16 03:03:55;;;;;;;8.23;3.83;;;4.50;99.90;;;;;;5051262;28;20127;-69
2023/01/16 03:07:05;;;;;;;8.40;3.13;;;4.20;99.90;;;;;;5050249;28;20041;-69
2023/01/16 03:09:56;;;;;;;7.88;3.78;;;4.20;99.90;;;;;;5012267;28;20045;-69
2023/01/16 03:12:42;;;;;;;6.82;3.30;;;4.20;99.90;;;;;;5028041;28;20491;-69
2023/01/16 03:15:26;;;;;;;7.18;3.47;;;4.20;99.90;;;;;;5040926;28;20099;-70
2023/01/16 03:18:03;;;;;;;8.68;3.45;;;4.20;99.90;;;;;;5051641;28;20044;-69
2023/01/16 03:21:10;;;;;;;6.95;3.42;;;4.50;99.90;;;;;;5050078;28;20056;-69
2023/01/16 03:23:55;;;;;;;6.65;3.50;;;4.20;99.90;;;;;;5049927;28;20083;-69
2023/01/16 03:26:43;;;;;;;7.60;3.55;;;4.10;99.90;;;;;;5050156;28;20048;-69
2023/01/16 03:29:27;;;;;;;12.77;4.05;;;4.10;99.90;;;;;;5050532;28;20057;-69
2023/01/16 03:32:03;;;;;;;8.93;3.80;;;4.10;99.90;;;;;;5050651;28;20040;-69
2023/01/16 03:34:53;;;;;;;10.30;3.40;;;4.10;99.90;;;;;;5050973;28;20091;-69
2023/01/16 03:37:28;;;;;;;10.35;3.83;;;4.10;99.90;;;;;;5033453;28;20074;-69
2023/01/16 03:40:03;;;;;;;10.68;3.50;;;4.20;99.90;;;;;;5033698;28;20479;-69
2023/01/16 03:42:53;;;;;;;8.18;3.75;;;4.10;99.90;;;;;;5049975;28;20111;-69
2023/01/16 03:45:36;;;;;;;12.18;4.07;;;4.10;99.90;;;;;;5039439;28;20064;-74
2023/01/16 03:48:35;;;;;;;7.55;3.33;;;4.10;99.90;;;;;;5033778;28;20065;-68
2023/01/16 03:51:05;;;;;;;7.65;3.53;;;4.10;99.90;;;;;;5050733;28;20490;-70
2023/01/16 03:53:39;;;;;;;9.40;3.55;;;4.00;99.90;;;;;;5049147;28;20521;-69
2023/01/16 03:56:20;;;;;;;11.70;3.65;;;4.10;99.90;;;;;;5049735;28;20491;-69
2023/01/16 03:58:48;;;;;;;8.68;3.67;;;4.00;99.90;;;;;;5051016;28;20383;-69
2023/01/16 04:01:28;;;;;;;9.88;3.92;;;4.00;99.90;;;;;;5050751;28;20081;-68
2023/01/16 04:04:05;;;;;;;7.38;3.67;;;4.00;99.90;;;;;;5049821;28;20053;-68
2023/01/16 04:07:06;;;;;;;6.50;3.13;;;4.40;99.90;;;;;;5050682;28;20075;-68
2023/01/16 04:09:58;;;;;;;10.15;3.75;;;4.00;99.90;;;;;;5027200;28;20053;-68
2023/01/16 04:12:32;;;;;;;8.13;3.83;;;4.10;99.90;;;;;;5048837;28;20513;-69
2023/01/16 04:15:01;;;;;;;7.80;3.80;;;4.70;99.90;;;;;;5051058;28;20075;-69
2023/01/16 04:17:28;;;;;;;8.48;3.85;;;4.00;99.90;;;;;;5049474;28;20080;-68
2023/01/16 04:19:54;;;;;;;8.98;4.13;;;4.10;99.90;;;;;;5050104;28;20048;-69
2023/01/16 04:22:26;;;;;;;7.45;4.10;;;4.10;99.90;;;;;;5033473;28;20048;-69
2023/01/16 04:24:54;;;;;;;9.07;4.75;;;4.10;99.90;;;;;;5049889;28;20045;-69
2023/01/16 04:27:21;;;;;;;7.20;4.30;;;4.10;99.90;;;;;;5049564;28;20079;-69
2023/01/16 04:29:47;;;;;;;9.25;4.25;;;4.10;99.90;;;;;;5032967;28;20089;-69
2023/01/16 04:32:13;;;;;;;10.80;4.97;;;4.30;99.90;;;;;;5050904;28;20081;-68
2023/01/16 04:34:38;;;;;;;7.70;4.40;;;4.20;99.90;;;;;;5049155;28;20053;-69
2023/01/16 04:37:05;;;;;;;6.93;3.95;;;4.10;99.90;;;;;;5054127;28;20040;-68
2023/01/16 04:39:30;;;;;;;8.75;4.70;;;4.20;99.90;;;;;;5036227;28;20041;-69
2023/01/16 04:41:56;;;;;;;7.85;4.25;;;4.10;99.90;;;;;;5054060;28;20149;-70
2023/01/16 04:44:22;;;;;;;7.78;4.20;;;4.10;99.90;;;;;;5036528;28;20049;-68
2023/01/16 04:46:47;;;;;;;10.20;4.57;;;4.10;99.90;;;;;;5036068;28;20103;-68
2023/01/16 04:49:13;;;;;;;10.27;4.65;;;4.10;99.90;;;;;;5052839;28;20045;-68
2023/01/16 04:51:39;;;;;;;8.63;4.63;;;4.10;99.90;;;;;;5053572;28;20045;-69
2023/01/16 04:54:06;;;;;;;12.02;4.60;;;4.10;99.90;;;;;;5052926;28;20403;-68
2023/01/16 04:56:33;;;;;;;9.70;5.82;;;4.20;99.90;;;;;;5053762;28;20045;-70
2023/01/16 04:58:59;;;;;;;10.23;5.22;;;4.10;99.90;;;;;;5053904;28;20058;-69
2023/01/16 05:01:25;;;;;;;12.73;5.60;;;4.10;99.90;;;;;;5052931;28;20045;-69
2023/01/16 05:03:51;;;;;;;9.73;5.75;;;4.10;99.90;;;;;;5052632;28;20131;-70
2023/01/16 05:06:17;;;;;;;9.13;5.57;;;4.10;99.90;;;;;;5052443;28;20207;-69
2023/01/16 05:08:43;;;;;;;9.77;5.40;;;4.10;99.90;;;;;;5053212;28;20052;-69
2023/01/16 05:11:09;;;;;;;10.27;5.97;;;4.10;99.90;;;;;;5053613;28;20170;-69
2023/01/16 05:13:34;;;;;;;12.40;5.97;;;4.10;99.90;;;;;;5052167;28;20093;-70
2023/01/16 05:16:00;;;;;;;12.02;5.60;;;4.10;99.90;;;;;;5053756;28;20077;-69
2023/01/16 05:18:26;;;;;;;11.73;7.13;;;4.10;99.90;;;;;;5052478;28;20048;-69
2023/01/16 05:20:52;;;;;;;12.43;6.30;;;4.10;99.90;;;;;;5053131;28;20045;-69
2023/01/16 05:23:17;;;;;;;11.05;6.53;;;3.60;99.90;;;;;;5053670;28;20128;-70
2023/01/16 05:25:43;;;;;;;11.27;6.22;;;4.10;99.90;;;;;;5053301;28;20596;-69
2023/01/16 05:28:09;;;;;;;15.68;6.78;;;4.10;99.90;;;;;;5053638;28;20049;-69
2023/01/16 05:30:35;;;;;;;11.90;7.00;;;4.30;99.90;;;;;;5052999;28;20364;-69
2023/01/16 05:33:02;;;;;;;10.48;6.85;;;4.10;99.90;;;;;;5052349;28;20084;-69
2023/01/16 05:35:27;;;;;;;11.48;6.65;;;4.10;99.90;;;;;;5052238;28;20052;-69
2023/01/16 05:37:53;;;;;;;13.75;7.78;;;4.00;99.90;;;;;;5052749;28;20047;-69
2023/01/16 05:40:19;;;;;;;13.82;7.80;;;4.10;99.90;;;;;;5053229;28;20048;-69
2023/01/16 05:42:47;;;;;;;12.27;7.63;;;4.00;99.90;;;;;;5053095;28;20055;-69
2023/01/16 05:45:13;;;;;;;11.90;7.50;;;3.90;99.90;;;;;;5052207;28;20041;-69
2023/01/16 05:47:39;;;;;;;11.95;7.68;;;3.90;99.90;;;;;;5051664;28;20080;-69
2023/01/16 05:50:05;;;;;;;13.75;8.20;;;3.80;99.90;;;;;;5035291;28;20052;-69
2023/01/16 05:52:31;;;;;;;14.30;8.52;;;3.80;99.90;;;;;;5051719;28;20045;-69
2023/01/16 05:54:56;;;;;;;15.90;8.98;;;3.80;99.90;;;;;;5051323;28;20049;-70
2023/01/16 05:57:23;;;;;;;17.15;8.98;;;3.90;99.90;;;;;;5035154;28;20045;-70
2023/01/16 05:59:50;;;;;;;15.27;9.68;;;3.70;99.90;;;;;;5052646;28;20624;-69
2023/01/16 06:02:17;;;;;;;14.05;9.38;;;3.70;99.90;;;;;;5051797;28;20052;-69
2023/01/16 06:04:43;;;;;;;14.93;10.50;;;3.70;99.90;;;;;;5051510;28;20045;-69
2023/01/16 06:07:09;;;;;;;17.10;10.60;;;3.60;99.90;;;;;;5052486;28;20449;-70
2023/01/16 06:09:34;;;;;;;16.42;9.70;;;3.60;99.90;;;;;;5052804;28;20048;-69
2023/01/16 06:12:00;;;;;;;13.15;9.30;;;3.70;99.90;;;;;;5051793;28;20573;-69
2023/01/16 06:14:26;;;;;;;17.70;10.52;;;3.70;99.90;;;;;;5052484;28;20051;-68
2023/01/16 06:16:51;;;;;;;17.10;10.45;;;3.70;99.90;;;;;;5051838;28;20143;-69
2023/01/16 06:19:17;;;;;;;18.35;11.20;;;4.00;99.90;;;;;;5051129;28;20045;-70
2023/01/16 06:21:43;;;;;;;15.95;11.43;;;3.70;99.90;;;;;;5052035;28;20496;-69
2023/01/16 06:24:09;;;;;;;16.17;11.95;;;3.70;99.90;;;;;;5052550;28;20049;-69
2023/01/16 06:26:34;;;;;;;17.88;11.73;;;3.70;99.90;;;;;;5051289;28;20505;-69
2023/01/16 06:29:00;;;;;;;19.75;12.13;;;3.70;99.90;;;;;;5051928;28;20041;-69
2023/01/16 06:31:26;;;;;;;15.32;10.68;;;3.90;99.90;;;;;;5034758;28;20045;-69
2023/01/16 06:33:52;;;;;;;16.92;11.40;;;3.70;99.90;;;;;;5051628;28;20124;-69
2023/01/16 06:36:17;;;;;;;18.92;12.77;;;3.90;99.90;;;;;;5034500;28;20090;-69
2023/01/16 06:38:43;;;;;;;18.77;11.88;;;3.60;99.90;;;;;;5050631;28;20516;-74
2023/01/16 06:41:10;;;;;;;21.05;11.88;;;3.60;99.90;;;;;;5052192;28;20102;-69
2023/01/16 06:43:36;;;;;;;23.08;13.60;;;3.90;99.90;;;;;;5051422;28;20045;-70
2023/01/16 06:46:01;;;;;;;17.15;12.60;;;3.70;99.90;;;;;;5050740;28;20049;-69
2023/01/16 06:48:27;;;;;;;19.33;12.27;;;3.70;99.90;;;;;;5050833;28;20091;-68
2023/01/16 06:50:53;;;;;;;19.70;12.32;;;3.70;99.90;;;;;;5050745;28;20132;-69
2023/01/16 06:53:19;;;;;;;18.88;12.38;;;3.70;99.90;;;;;;5050515;28;20127;-71
2023/01/16 06:55:45;;;;;;;16.38;12.10;;;3.70;99.90;;;;;;5050313;28;20052;-74
2023/01/16 06:58:11;;;;;;;18.83;11.85;;;3.70;99.90;;;;;;5017098;28;20106;-68
2023/01/16 07:00:37;;;;;;;22.05;13.90;;;3.70;99.90;;;;;;5051905;28;20156;-69
2023/01/16 07:03:03;;;;;;;22.02;11.77;;;3.80;99.90;;;;;;5050121;28;20044;-71
2023/01/16 07:05:30;;;;;;;22.55;12.13;;;3.70;99.90;;;;;;5050589;28;20510;-69
2023/01/16 07:07:55;;;;;;;15.32;9.10;;;3.60;99.90;;;;;;5050071;28;20071;-70
2023/01/16 07:10:22;;;;;;;18.02;12.27;;;3.60;99.90;;;;;;5050068;28;20045;-68
2023/01/16 07:12:49;;;;;;;18.55;12.45;;;3.50;99.90;;;;;;5051122;28;20152;-72
2023/01/16 07:23:43;;;;;;;19.40;10.75;;;;;;;;;;5050743;28;20064;-69
2023/01/16 07:26:11;;;;;;;18.30;10.63;;;;;;;;;;5050987;28;20513;-69
2023/01/16 07:28:38;;;;;;;17.73;10.38;;;3.50;99.90;;;;;;5050336;28;20052;-68
2023/01/16 07:31:05;;;;;;;26.63;10.60;;;3.40;99.90;;;;;;5051177;28;20095;-70
2023/01/16 07:33:31;;;;;;;13.98;9.93;;;3.40;99.90;;;;;;5051338;28;20095;-68
2023/01/16 07:35:56;;;;;;;17.13;10.90;;;3.40;99.90;;;;;;5050000;28;20041;-69
2023/01/16 07:38:22;;;;;;;16.58;10.20;;;3.40;99.90;;;;;;5051296;28;20041;-69
2023/01/16 07:40:48;;;;;;;15.38;10.00;;;3.50;99.90;;;;;;5049942;28;20087;-68
2023/01/16 07:43:14;;;;;;;16.60;10.30;;;3.50;99.90;;;;;;5049725;28;20045;-68
2023/01/16 07:45:39;;;;;;;23.52;11.50;;;3.40;99.90;;;;;;5050214;28;20398;-68
2023/01/16 07:48:05;;;;;;;17.08;10.85;;;3.30;99.90;;;;;;5050906;28;20088;-69
2023/01/16 07:50:31;;;;;;;19.08;10.55;;;3.30;99.90;;;;;;5051207;28;20390;-69
2023/01/16 07:52:57;;;;;;;18.00;10.40;;;3.40;99.90;;;;;;5050002;28;20045;-69
2023/01/16 07:55:23;;;;;;;16.98;9.85;;;3.30;99.90;;;;;;5051045;28;20181;-69
2023/01/16 07:57:49;;;;;;;19.10;10.65;;;3.40;99.90;;;;;;5051049;28;20130;-70
2023/01/16 08:00:15;;;;;;;15.98;9.77;;;3.40;99.90;;;;;;5050757;28;20051;-70
2023/01/16 08:02:42;;;;;;;16.73;9.80;;;3.30;99.90;;;;;;5033449;28;20198;-69
2023/01/16 08:05:09;;;;;;;16.13;8.98;;;3.30;99.90;;;;;;5049470;28;20087;-69
2023/01/16 08:07:35;;;;;;;20.75;10.13;;;3.30;99.90;;;;;;5049892;28;20041;-69
2023/01/16 08:10:01;;;;;;;14.80;8.27;;;3.50;99.90;;;;;;5050806;28;20071;-69
2023/01/16 08:12:27;;;;;;;20.67;8.93;;;3.30;99.90;;;;;;5036678;28;20057;-69
2023/01/16 08:14:53;;;;;;;20.33;9.77;;;3.30;99.90;;;;;;5054934;28;20049;-68
2023/01/16 08:17:18;;;;;;;22.75;8.32;;;3.30;99.90;;;;;;5054529;28;20059;-70
2023/01/16 08:19:44;;;;;;;14.63;8.98;;;3.30;99.90;;;;;;5053602;28;20045;-70
2023/01/16 08:22:10;;;;;;;17.40;8.95;;;3.50;99.90;;;;;;5054342;28;20049;-70
2023/01/16 08:24:35;;;;;;;20.42;9.02;;;3.40;99.90;;;;;;5053865;28;20040;-70
2023/01/16 08:27:01;;;;;;;17.77;8.88;;;3.30;99.90;;;;;;5053228;28;20045;-70
2023/01/16 08:29:27;;;;;;;17.48;9.15;;;3.30;99.90;;;;;;5036811;28;20485;-70
2023/01/16 08:31:53;;;;;;;14.18;8.45;;;3.40;99.90;;;;;;5053664;28;20071;-70
2023/01/16 08:34:18;;;;;;;18.60;9.43;;;3.40;99.90;;;;;;5052858;28;20203;-68
2023/01/16 08:36:44;;;;;;;18.20;9.02;;;3.30;99.90;;;;;;5052973;28;20049;-69
2023/01/16 08:39:10;;;;;;;24.40;11.13;;;3.50;99.90;;;;;;5053850;28;20041;-69
2023/01/16 08:52:41;;;;;;;18.63;9.85;;;3.40;99.90;;;;;;5025138;28;20146;-70
2023/01/16 08:55:07;;;;;;;17.30;9.57;;;3.40;99.90;;;;;;5052231;28;20457;-71
2023/01/16 08:57:33;;;;;;;16.60;9.93;;;3.40;99.90;;;;;;5052871;28;20053;-70
2023/01/16 08:59:59;;;;;;;15.15;10.07;;;3.40;99.90;;;;;;5052706;28;20479;-70
2023/01/16 09:02:27;;;;;;;18.85;9.90;;;3.40;99.90;;;;;;5035665;28;20067;-69
2023/01/16 09:04:54;;;;;;;16.98;8.73;;;3.70;99.90;;;;;;5052133;28;20059;-71
2023/01/16 09:07:20;;;;;;;16.50;9.25;;;3.50;99.90;;;;;;5052122;28;20509;-70
2023/01/16 09:09:46;;;;;;;12.07;7.95;;;3.50;99.90;;;;;;5053789;28;20045;-70
2023/01/16 09:14:58;;;;;;;13.77;9.50;;;3.60;99.90;;;;;;5052376;28;20049;-70
2023/01/16 09:17:25;;;;;;;17.20;8.38;;;3.60;99.90;;;;;;5051086;28;20114;-72
2023/01/16 09:19:51;;;;;;;13.95;8.07;;;3.60;99.90;;;;;;5019529;28;20457;-70
2023/01/16 09:22:18;;;;;;;19.42;9.00;;;3.60;99.90;;;;;;5051681;28;20089;-71
2023/01/16 09:24:44;;;;;;;15.20;8.07;;;3.60;99.90;;;;;;5052573;28;20101;-71
2023/01/16 09:27:12;;;;;;;15.68;8.00;;;3.80;99.90;;;;;;5052188;28;20056;-69
2023/01/16 09:29:39;;;;;;;13.23;7.43;;;3.70;99.90;;;;;;5036181;28;20388;-70
2023/01/16 09:32:08;;;;;;;13.93;6.30;;;3.70;99.90;;;;;;5052468;28;20499;-72
2023/01/16 09:34:38;;;;;;;12.73;7.45;;;3.70;99.90;;;;;;5035773;28;20049;-68
2023/01/16 09:37:05;;;;;;;10.85;6.20;;;3.80;99.90;;;;;;5052366;28;20144;-69
2023/01/16 09:39:31;;;;;;;15.00;6.50;;;3.80;99.90;;;;;;5052956;28;20045;-67
2023/01/16 09:45:10;;;;;;;13.40;6.57;;;3.80;99.90;;;;;;5052165;28;20102;-67
2023/01/16 09:47:37;;;;;;;11.45;5.97;;;3.80;99.90;;;;;;5035702;28;20049;-70
2023/01/16 09:50:12;;;;;;;13.57;6.78;;;3.80;99.90;;;;;;5051836;28;20049;-69
2023/01/16 09:58:36;;;;;;;8.68;5.30;;;3.90;99.90;;;;;;5051938;28;20048;-69
2023/01/16 10:01:03;;;;;;;;;;;3.80;99.90;;;;;;5035818;28;20602;-68
2023/01/16 10:03:28;;;;;;;9.98;6.65;;;3.90;99.90;;;;;;5052450;28;19929;-68
2023/01/16 10:06:13;;;;;;;13.80;5.82;;;3.90;99.90;;;;;;5018723;28;20047;-68
2023/01/16 10:08:52;;;;;;;10.18;5.00;;;3.90;99.90;;;;;;5052797;28;20049;-68
2023/01/16 10:11:23;;;;;;;9.02;5.18;;;3.90;99.90;;;;;;5051075;28;20064;-68
2023/01/16 10:14:08;;;;;;;11.75;5.72;;;3.90;99.90;;;;;;5051597;28;20083;-68
2023/01/16 10:17:07;;;;;;;11.60;5.20;;;3.90;99.90;;;;;;5051260;28;20049;-68
2023/01/16 10:20:13;;;;;;;9.60;5.30;;;4.00;99.90;;;;;;5035217;28;20055;-68
2023/01/16 10:22:50;;;;;;;8.02;3.92;;;4.00;99.90;;;;;;5051575;28;20075;-68
2023/01/16 10:25:31;;;;;;;11.07;4.63;;;4.00;99.90;;;;;;5034617;28;20088;-68
2023/01/16 10:28:16;;;;;;;6.72;4.18;;;4.00;99.90;;;;;;5052574;28;20045;-67
2023/01/16 10:30:54;;;;;;;7.70;4.32;;;4.00;99.90;;;;;;5051745;28;20447;-69
2023/01/16 10:33:34;;;;;;;9.75;4.18;;;4.00;99.90;;;;;;5051685;28;20044;-66
2023/01/16 10:36:03;;;;;;;10.38;5.60;;;4.00;99.90;;;;;;5050642;28;20077;-66
2023/01/16 10:38:55;;;;;;;11.48;4.40;;;4.00;99.90;;;;;;5052012;28;20114;-68
2023/01/16 10:50:18;;;;;;;8.02;4.20;;;4.10;99.90;;;;;;5051213;28;20079;-68
2023/01/16 10:52:45;;;;;;;9.00;4.70;;;4.00;99.90;;;;;;5034664;28;20076;-68
2023/01/16 10:55:11;;;;;;;8.25;4.38;;;4.00;99.90;;;;;;5050373;28;20079;-68
2023/01/16 10:57:52;;;;;;;8.60;4.38;;;4.00;99.90;;;;;;5051720;28;20076;-65
2023/01/16 11:00:28;;;;;;;9.80;4.47;;;4.30;99.90;;;;;;5050227;28;20126;-69
2023/01/16 11:02:58;;;;;;;8.82;4.78;;;4.00;99.90;;;;;;5050935;28;20053;-70
2023/01/16 11:05:33;;;;;;;9.85;4.45;;;4.00;99.90;;;;;;5050777;28;20099;-69
2023/01/16 11:08:18;;;;;;;8.98;3.72;;;4.00;99.90;;;;;;5051268;28;20124;-72
2023/01/16 11:10:47;;;;;;;6.05;3.50;;;4.00;99.90;;;;;;5051730;28;20441;-70
2023/01/16 11:18:55;;;;;;;8.45;2.95;;;3.80;99.90;;;;;;5050541;28;20581;-71
2023/01/16 11:21:29;;;;;;;4.22;2.33;;;3.80;99.90;;;;;;5034264;28;20136;-72
2023/01/16 11:24:16;;;;;;;5.05;2.58;;;3.60;99.90;;;;;;5050842;28;20055;-71
2023/01/16 11:26:48;;;;;;;3.90;2.25;;;3.60;99.90;;;;;;5051715;28;20049;-71
2023/01/16 11:29:17;;;;;;;5.95;2.40;;;3.50;99.90;;;;;;5050284;28;20049;-70
2023/01/16 11:31:48;;;;;;;7.45;2.78;;;3.40;99.90;;;;;;5033938;28;20106;-70
2023/01/16 11:34:15;;;;;;;5.35;2.63;;;3.40;99.90;;;;;;5051828;28;20119;-69
2023/01/16 11:36:41;;;;;;;8.52;3.00;;;3.40;99.90;;;;;;5051527;28;20056;-70
2023/01/16 11:39:20;;;;;;;5.68;2.90;;;3.60;99.90;;;;;;5050687;28;20045;-70
2023/01/16 11:41:49;;;;;;;4.95;2.72;;;3.60;99.90;;;;;;5051592;28;20051;-70
2023/01/16 11:47:25;;;;;;;4.00;2.50;;;3.30;99.90;;;;;;5055991;28;20358;-72
2023/01/16 11:49:53;;;;;;;6.30;2.60;;;3.20;99.90;;;;;;5055958;28;20045;-69
2023/01/16 11:52:27;;;;;;;6.55;2.80;;;3.30;99.90;;;;;;5038058;28;20059;-69
2023/01/16 11:54:58;;;;;;;5.40;2.65;;;3.30;99.90;;;;;;5054416;28;20345;-69
2023/01/16 11:57:36;;;;;;;5.28;2.95;;;3.30;99.90;;;;;;5054272;28;20045;-69
2023/01/16 12:00:13;;;;;;;5.55;2.53;;;3.30;99.90;;;;;;5053934;28;20126;-69
2023/01/16 12:03:24;;;;;;;10.13;2.97;;;3.30;99.90;;;;;;5055253;28;20041;-69
2023/01/16 12:06:19;;;;;;;4.93;2.75;;;3.30;99.90;;;;;;5042421;28;20056;-69
2023/01/16 12:08:47;;;;;;;3.42;2.20;;;3.30;99.90;;;;;;5054995;28;20402;-69
2023/01/16 12:11:44;;;;;;;9.20;2.97;;;3.30;99.90;;;;;;5037530;28;20056;-70
2023/01/16 12:14:29;;;;;;;6.65;2.67;;;3.30;99.90;;;;;;5054152;28;20128;-77
2023/01/16 12:17:30;;;;;;;5.07;2.60;;;3.40;99.90;;;;;;5054090;28;20088;-70
2023/01/16 12:20:11;;;;;;;8.38;2.95;;;3.30;99.90;;;;;;5032178;28;20384;-69
2023/01/16 12:23:17;;;;;;;8.82;2.70;;;3.30;99.90;;;;;;5054687;28;20087;-69
2023/01/16 12:25:42;;;;;;;;;;;3.30;99.90;;;;;;5055320;28;20045;-69
2023/01/16 12:28:31;;;;;;;10.18;2.72;;;3.40;99.90;;;;;;5054104;28;19932;-70
2023/01/16 12:31:34;;;;;;;4.25;2.40;;;3.30;99.90;;;;;;5053765;28;20409;-70
2023/01/16 12:34:12;;;;;;;4.75;2.45;;;3.40;99.90;;;;;;5044582;28;20061;-69
2023/01/16 12:36:56;;;;;;;6.95;2.95;;;3.50;99.90;;;;;;5053085;28;20049;-69
2023/01/16 12:39:28;;;;;;;5.15;2.67;;;3.50;99.90;;;;;;5053801;28;20084;-71
2023/01/16 12:45:15;;;;;;;5.10;2.88;;;3.50;99.90;;;;;;5053599;28;20465;-69
2023/01/16 12:48:07;;;;;;;5.22;2.60;;;3.50;99.90;;;;;;5053263;28;20037;-72
2023/01/16 12:50:50;;;;;;;6.07;2.90;;;3.50;99.90;;;;;;5053503;28;20064;-71
2023/01/16 12:53:28;;;;;;;10.52;3.20;;;3.50;99.90;;;;;;5054510;28;20087;-69
2023/01/16 12:56:08;;;;;;;8.75;3.28;;;3.50;99.90;;;;;;5052909;28;20053;-69
2023/01/16 12:58:40;;;;;;;8.00;3.33;;;3.50;99.90;;;;;;5054541;28;20406;-70
2023/01/16 13:01:19;;;;;;;7.55;3.42;;;3.50;99.90;;;;;;5054370;28;20072;-70
2023/01/16 13:03:58;;;;;;;11.02;3.20;;;3.50;99.90;;;;;;5054067;28;20044;-73
2023/01/16 13:06:42;;;;;;;6.45;3.28;;;3.60;99.90;;;;;;5053192;28;20403;-69
2023/01/16 13:09:28;;;;;;;5.17;3.20;;;3.60;99.90;;;;;;5054349;28;20453;-70
2023/01/16 13:15:17;;;;;;;6.38;3.20;;;3.60;99.90;;;;;;5052824;28;20162;-71
2023/01/16 13:17:48;;;;;;;9.05;3.78;;;3.70;99.90;;;;;;5052680;28;20490;-75
2023/01/16 13:20:16;;;;;;;8.55;3.50;;;3.60;99.90;;;;;;5054146;28;20045;-73
2023/01/16 13:22:56;;;;;;;5.60;3.47;;;3.70;99.90;;;;;;5052777;28;20056;-71
2023/01/16 13:25:42;;;;;;;7.10;4.00;;;3.70;99.90;;;;;;5052837;28;20057;-70
2023/01/16 13:28:49;;;;;;;5.22;3.30;;;3.80;99.90;;;;;;5054284;28;20052;-71
2023/01/16 13:31:28;;;;;;;5.60;3.40;;;3.80;99.90;;;;;;5036207;28;20500;-72
2023/01/16 13:34:34;;;;;;;10.30;3.45;;;4.00;99.90;;;;;;5052569;28;20410;-75
2023/01/16 13:37:21;;;;;;;7.55;4.13;;;3.80;99.90;;;;;;5033232;28;20063;-72
2023/01/16 13:40:05;;;;;;;5.68;3.25;;;3.90;99.90;;;;;;5035487;28;20498;-68
2023/01/16 13:42:33;;;;;;;6.22;3.55;;;3.90;99.90;;;;;;5053517;28;20386;-71
2023/01/16 13:47:51;;;;;;;8.80;3.83;;;3.90;99.90;;;;;;5051963;28;20076;-71
2023/01/16 13:50:24;;;;;;;7.45;4.30;;;4.00;99.90;;;;;;5052115;28;20051;-70
2023/01/16 13:52:53;;;;;;;8.77;4.57;;;3.90;99.90;;;;;;5035296;28;20052;-69
2023/01/16 13:55:34;;;;;;;8.32;4.18;;;4.00;99.90;;;;;;5034997;28;20041;-70
2023/01/16 13:58:22;;;;;;;7.00;4.07;;;4.10;99.90;;;;;;5051453;28;20051;-70
2023/01/16 14:01:03;;;;;;;7.10;3.80;;;4.10;99.90;;;;;;5052027;28;20396;-70
2023/01/16 14:03:34;;;;;;;9.38;4.45;;;4.00;99.90;;;;;;5052138;28;20156;-71
2023/01/16 14:06:12;;;;;;;11.20;4.25;;;4.10;99.90;;;;;;5051658;28;20096;-71
2023/01/16 14:09:11;;;;;;;7.78;4.28;;;4.10;99.90;;;;;;5034205;28;20048;-71
2023/01/16 14:11:41;;;;;;;8.45;4.05;;;4.10;99.90;;;;;;5051487;28;20057;-74
2023/01/16 14:17:21;;;;;;;5.95;3.75;;;4.10;99.90;;;;;;5051803;28;20052;-72
2023/01/16 14:20:01;;;;;;;8.57;4.03;;;4.10;99.90;;;;;;5051765;28;20053;-81
2023/01/16 14:25:02;;;;;;;5.80;4.28;;;4.10;99.90;;;;;;5051257;28;20053;-71